Terminal Aerodrome Forecast
Issued by NWS Greer, SC

Home | Current Version | Previous Version | Text Only | Print | Product List | Glossary On
Versions: 1 2 3 4 5 6 7 8 9 10 11 12 13 14 15
000
FTUS42 KGSP 301734
TAFGSP
TAF
KGSP 301734Z 3018/3118 12006KT P6SM -SHRA BKN070 OVC120
     FM302200 06003KT P6SM -SHRA OVC060
     FM310200 04003KT P6SM VCSH BKN070
     FM310400 03003KT 5SM BR VCSH BKN018
     FM310900 05003KT 3SM BR BKN004
     FM311300 06004KT 5SM BR BKN007
     FM311500 05004KT P6SM BKN025=

USA.gov is the U.S. government's official web portal to all federal, state and local government web resources and services.